createdAt,value
2023-01-06T00:01:19.650Z,6.70
2023-01-06T00:03:51.832Z,5.20
2023-01-06T00:06:27.465Z,5.90
2023-01-06T00:08:59.475Z,5.80
2023-01-06T00:11:30.333Z,5.80
2023-01-06T00:14:01.174Z,7.90
2023-01-06T00:16:31.494Z,5.40
2023-01-06T00:19:01.889Z,5.30
2023-01-06T00:21:32.374Z,5.40
2023-01-06T00:24:03.006Z,6.40
2023-01-06T00:26:33.368Z,5.70
2023-01-06T00:29:03.933Z,5.80
2023-01-06T00:31:34.221Z,6.70
2023-01-06T00:34:05.155Z,5.60
2023-01-06T00:36:35.755Z,6.00
2023-01-06T00:39:05.871Z,4.80
2023-01-06T00:41:54.475Z,6.90
2023-01-06T00:44:25.946Z,5.70
2023-01-06T00:46:56.234Z,7.30
2023-01-06T00:49:27.052Z,5.50
2023-01-06T00:51:57.616Z,6.20
2023-01-06T00:54:28.130Z,5.70
2023-01-06T00:56:58.700Z,4.90
2023-01-06T00:59:29.336Z,5.90
2023-01-06T01:02:00.049Z,4.30
2023-01-06T01:04:30.748Z,5.60
2023-01-06T01:07:00.833Z,4.80
2023-01-06T01:09:32.540Z,5.60
2023-01-06T01:12:14.038Z,5.50
2023-01-06T01:14:47.128Z,5.10
2023-01-06T01:17:19.415Z,5.00
2023-01-06T01:19:51.805Z,4.80
2023-01-06T01:22:23.539Z,5.20
2023-01-06T01:24:53.519Z,5.30
2023-01-06T01:27:24.306Z,5.20
2023-01-06T01:29:56.006Z,7.40
2023-01-06T01:32:26.461Z,6.20
2023-01-06T01:34:57.108Z,7.80
2023-01-06T01:37:26.933Z,5.50
2023-01-06T01:39:57.265Z,5.20
2023-01-06T01:42:27.473Z,6.10
2023-01-06T01:45:05.867Z,5.40
2023-01-06T01:50:14.889Z,4.60
2023-01-06T01:52:47.743Z,4.10
2023-01-06T01:55:19.082Z,6.10
2023-01-06T01:57:54.530Z,7.40
2023-01-06T02:00:25.012Z,5.50
2023-01-06T02:02:55.314Z,5.60
2023-01-06T02:05:28.206Z,6.70
2023-01-06T02:08:03.310Z,6.10
2023-01-06T02:10:34.658Z,5.40
2023-01-06T02:13:05.182Z,5.90
2023-01-06T02:15:35.736Z,5.40
2023-01-06T02:18:39.204Z,5.30
2023-01-06T02:21:27.622Z,5.40
2023-01-06T02:24:52.204Z,5.70
2023-01-06T02:27:48.009Z,4.40
2023-01-06T02:30:43.383Z,7.20
2023-01-06T02:33:21.856Z,7.20
2023-01-06T02:36:15.177Z,7.10
2023-01-06T02:38:59.381Z,6.00
2023-01-06T02:41:38.701Z,6.70
2023-01-06T02:46:59.921Z,4.60
2023-01-06T02:49:40.026Z,6.60
2023-01-06T02:52:27.591Z,6.10
2023-01-06T02:55:03.760Z,6.10
2023-01-06T02:57:41.756Z,6.10
2023-01-06T03:00:20.610Z,6.50
2023-01-06T03:02:57.375Z,4.80
2023-01-06T03:05:30.587Z,5.10
2023-01-06T03:08:07.543Z,5.00
2023-01-06T03:10:42.439Z,5.10
2023-01-06T03:13:19.713Z,4.20
2023-01-06T03:15:50.527Z,5.00
2023-01-06T03:18:21.245Z,4.20
2023-01-06T03:20:53.868Z,4.60
2023-01-06T03:23:24.102Z,4.50
2023-01-06T03:25:54.693Z,4.40
2023-01-06T03:28:27.028Z,4.60
2023-01-06T03:31:06.940Z,4.30
2023-01-06T03:33:48.360Z,3.80
2023-01-06T03:36:29.860Z,4.10
2023-01-06T03:39:08.166Z,5.30
2023-01-06T03:42:02.250Z,5.00
2023-01-06T03:44:45.058Z,5.50
2023-01-06T03:47:23.699Z,5.10
2023-01-06T03:50:07.150Z,6.00
2023-01-06T03:52:45.817Z,4.70
2023-01-06T03:55:20.424Z,6.10
2023-01-06T03:57:54.645Z,5.70
2023-01-06T04:00:27.678Z,5.30
2023-01-06T04:03:02.601Z,4.50
2023-01-06T04:05:32.611Z,5.10
2023-01-06T04:08:04.662Z,5.80
2023-01-06T04:10:35.613Z,4.40
2023-01-06T04:13:05.993Z,5.50
2023-01-06T04:15:37.030Z,6.30
2023-01-06T04:18:09.789Z,5.70
2023-01-06T04:20:41.825Z,5.00
2023-01-06T04:23:18.863Z,3.20
2023-01-06T04:25:49.703Z,4.10
2023-01-06T04:28:24.696Z,5.30
2023-01-06T04:30:58.677Z,5.50
2023-01-06T04:33:29.474Z,5.40
2023-01-06T04:36:02.893Z,5.50
2023-01-06T04:38:32.918Z,6.00
2023-01-06T04:41:03.128Z,6.40
2023-01-06T04:43:33.736Z,4.70
2023-01-06T04:46:04.802Z,6.00
2023-01-06T04:48:34.889Z,5.70
2023-01-06T04:51:07.537Z,6.10
2023-01-06T04:53:39.439Z,6.70
2023-01-06T04:56:12.210Z,6.00
2023-01-06T04:58:42.519Z,7.40
2023-01-06T05:01:14.310Z,6.50
2023-01-06T05:03:44.672Z,5.40
2023-01-06T05:06:15.555Z,5.90
2023-01-06T05:08:46.801Z,5.20
2023-01-06T05:11:19.092Z,7.30
2023-01-06T05:13:50.128Z,6.10
2023-01-06T05:16:24.061Z,6.10
2023-01-06T05:18:55.572Z,6.60
2023-01-06T05:21:31.504Z,5.30
2023-01-06T05:24:03.030Z,6.10
2023-01-06T05:26:33.799Z,5.00
2023-01-06T05:29:04.029Z,5.70
2023-01-06T05:31:34.437Z,6.20
2023-01-06T05:34:04.471Z,7.40
2023-01-06T05:36:34.711Z,6.60
2023-01-06T05:39:05.246Z,6.70
2023-01-06T05:41:35.718Z,7.20
2023-01-06T05:44:06.419Z,5.20
2023-01-06T05:46:37.181Z,5.20
2023-01-06T05:49:09.094Z,4.40
2023-01-06T05:51:39.380Z,5.00
2023-01-06T05:54:10.841Z,6.70
2023-01-06T05:56:41.420Z,6.10
2023-01-06T05:59:11.718Z,6.30
2023-01-06T06:01:42.266Z,6.90
2023-01-06T06:04:14.011Z,6.90
2023-01-06T06:06:44.300Z,5.40
2023-01-06T06:09:14.104Z,6.40
2023-01-06T06:11:44.785Z,5.30
2023-01-06T06:14:17.204Z,4.70
2023-01-06T06:16:47.969Z,5.90
2023-01-06T06:19:18.450Z,6.80
2023-01-06T06:21:48.499Z,4.90
2023-01-06T06:24:19.012Z,5.00
2023-01-06T06:26:49.581Z,6.00
2023-01-06T06:29:19.712Z,6.10
2023-01-06T06:31:50.226Z,6.30
2023-01-06T06:34:20.462Z,6.10
2023-01-06T06:36:50.439Z,6.00
2023-01-06T06:39:21.271Z,6.40
2023-01-06T06:41:51.704Z,5.70
2023-01-06T06:44:21.811Z,5.40
2023-01-06T06:46:52.013Z,6.10
2023-01-06T06:49:22.522Z,6.10
2023-01-06T06:51:53.843Z,6.30
2023-01-06T06:54:25.749Z,7.30
2023-01-06T06:56:56.702Z,7.10
2023-01-06T06:59:27.253Z,4.80
2023-01-06T07:01:57.641Z,6.40
2023-01-06T07:04:28.230Z,5.70
2023-01-06T07:06:58.659Z,6.20
2023-01-06T07:09:29.274Z,7.40
2023-01-06T07:12:00.012Z,8.20
2023-01-06T07:14:30.375Z,7.80
2023-01-06T07:17:02.299Z,8.10
2023-01-06T07:19:32.466Z,8.20
2023-01-06T07:22:02.645Z,10.80
2023-01-06T07:24:33.214Z,7.40
2023-01-06T07:27:04.061Z,6.80
2023-01-06T07:29:34.105Z,8.10
2023-01-06T07:32:04.121Z,9.90
2023-01-06T07:34:34.003Z,11.90
2023-01-06T07:37:04.618Z,11.60
2023-01-06T07:39:34.801Z,10.50
2023-01-06T07:42:07.905Z,10.70
2023-01-06T07:44:38.389Z,9.20
2023-01-06T07:47:10.135Z,12.20
2023-01-06T07:49:40.836Z,7.90
2023-01-06T07:52:11.270Z,6.70
2023-01-06T07:54:41.825Z,7.00
2023-01-06T07:57:12.085Z,6.50
2023-01-06T07:59:42.219Z,6.00
2023-01-06T08:02:13.063Z,6.30
2023-01-06T08:04:43.592Z,6.40
2023-01-06T08:07:15.258Z,6.50
2023-01-06T08:09:46.288Z,4.70
2023-01-06T08:12:16.732Z,5.90
2023-01-06T08:14:47.056Z,6.30
2023-01-06T08:17:17.487Z,9.70
2023-01-06T08:19:47.711Z,8.70
2023-01-06T08:22:18.031Z,8.80
2023-01-06T08:24:48.373Z,6.30
2023-01-06T08:27:20.178Z,8.40
2023-01-06T08:29:51.716Z,9.80
2023-01-06T08:32:22.524Z,9.10
2023-01-06T08:34:53.006Z,8.90
2023-01-06T08:37:23.230Z,6.80
2023-01-06T08:39:53.443Z,7.90
2023-01-06T08:42:23.466Z,7.30
2023-01-06T08:44:53.409Z,7.80
2023-01-06T08:47:23.969Z,7.10
2023-01-06T08:49:54.263Z,6.30
2023-01-06T08:52:24.533Z,5.50
2023-01-06T08:54:54.680Z,5.30
2023-01-06T08:57:25.181Z,5.40
2023-01-06T08:59:55.337Z,6.20
2023-01-06T09:02:26.855Z,4.70
2023-01-06T09:04:57.675Z,5.50
2023-01-06T09:07:28.207Z,6.60
2023-01-06T09:09:58.583Z,5.50
2023-01-06T09:12:28.936Z,6.10
2023-01-06T09:14:59.563Z,6.90
2023-01-06T09:17:31.102Z,6.50
2023-01-06T09:20:01.656Z,12.90
2023-01-06T09:22:32.390Z,8.20
2023-01-06T09:25:03.714Z,7.10
2023-01-06T09:27:34.556Z,7.70
2023-01-06T09:30:07.643Z,5.40
2023-01-06T09:32:38.058Z,5.50
2023-01-06T09:35:10.764Z,6.30
2023-01-06T09:37:41.170Z,7.80
2023-01-06T09:40:18.029Z,8.40
2023-01-06T09:43:02.335Z,6.10
2023-01-06T09:45:37.541Z,6.40
2023-01-06T09:48:15.727Z,6.90
2023-01-06T09:50:48.895Z,8.30
2023-01-06T09:53:22.815Z,8.60
2023-01-06T09:55:57.595Z,8.10
2023-01-06T09:58:33.237Z,7.30
2023-01-06T10:01:08.259Z,7.90
2023-01-06T10:03:38.939Z,8.20
2023-01-06T10:06:28.227Z,8.80
2023-01-06T10:09:08.157Z,7.00
2023-01-06T10:11:53.121Z,7.30
2023-01-06T10:14:38.168Z,8.00
2023-01-06T10:17:22.682Z,7.30
2023-01-06T10:20:07.345Z,7.30
2023-01-06T10:22:47.842Z,9.00
2023-01-06T10:25:20.778Z,8.10
2023-01-06T10:27:59.994Z,8.60
2023-01-06T10:30:40.141Z,9.20
2023-01-06T10:33:22.079Z,9.20
2023-01-06T10:35:54.136Z,9.30
2023-01-06T10:38:28.049Z,9.20
2023-01-06T10:41:12.776Z,9.10
2023-01-06T10:43:42.843Z,9.50
2023-01-06T10:46:14.525Z,9.40
2023-01-06T10:48:46.453Z,10.50
2023-01-06T10:51:38.973Z,10.10
2023-01-06T10:54:12.346Z,10.10
2023-01-06T10:56:47.419Z,10.30
2023-01-06T10:59:18.146Z,11.70
2023-01-06T11:01:53.528Z,11.70
2023-01-06T11:04:26.053Z,11.90
2023-01-06T11:07:00.544Z,14.90
2023-01-06T11:09:39.408Z,12.70
2023-01-06T11:12:16.939Z,11.60
2023-01-06T11:14:56.478Z,11.00
2023-01-06T11:17:28.253Z,13.30
2023-01-06T11:20:27.317Z,12.80
2023-01-06T11:23:14.807Z,10.00
2023-01-06T11:26:00.284Z,10.40
2023-01-06T11:28:30.636Z,22.90
2023-01-06T11:31:04.239Z,9.70
2023-01-06T11:33:37.204Z,9.60
2023-01-06T11:36:13.957Z,10.30
2023-01-06T11:38:47.064Z,9.30
2023-01-06T11:41:25.090Z,9.60
2023-01-06T11:44:03.164Z,10.60
2023-01-06T11:46:33.642Z,8.90
2023-01-06T11:49:10.824Z,10.60
2023-01-06T11:51:49.895Z,9.30
2023-01-06T11:54:29.654Z,8.70
2023-01-06T11:57:02.534Z,9.80
2023-01-06T11:59:47.453Z,10.30
2023-01-06T12:02:25.090Z,11.50
2023-01-06T12:04:58.977Z,9.10
2023-01-06T12:07:39.236Z,10.30
2023-01-06T12:10:19.397Z,10.70
2023-01-06T12:12:50.441Z,9.60
2023-01-06T12:15:22.171Z,9.70
2023-01-06T12:17:55.498Z,9.40
2023-01-06T12:20:29.131Z,9.90
2023-01-06T12:23:01.704Z,10.30
2023-01-06T12:25:35.514Z,11.10
2023-01-06T12:28:10.517Z,14.80
2023-01-06T12:30:50.579Z,11.60
2023-01-06T12:33:27.183Z,11.10
2023-01-06T12:36:03.478Z,12.70
2023-01-06T12:38:46.948Z,13.00
2023-01-06T12:41:23.929Z,12.70
2023-01-06T12:44:01.278Z,11.90
2023-01-06T12:46:38.783Z,11.80
2023-01-06T12:49:20.699Z,11.00
2023-01-06T12:51:57.283Z,12.70
2023-01-06T12:54:31.556Z,14.10
2023-01-06T12:57:20.017Z,12.10
2023-01-06T13:00:04.263Z,11.30
2023-01-06T13:02:55.610Z,13.10
2023-01-06T13:05:48.330Z,11.90
2023-01-06T13:08:29.548Z,10.70
2023-01-06T13:11:14.489Z,10.10
2023-01-06T13:13:56.176Z,13.40
2023-01-06T13:16:37.174Z,11.00
2023-01-06T13:19:21.185Z,12.10
2023-01-06T13:21:54.066Z,13.40
2023-01-06T13:24:49.249Z,13.40
2023-01-06T13:27:38.410Z,11.40
2023-01-06T13:30:29.394Z,12.40
2023-01-06T13:33:43.210Z,11.70
2023-01-06T13:36:33.141Z,10.30
2023-01-06T13:39:09.290Z,11.10
2023-01-06T13:41:43.178Z,13.30
2023-01-06T13:44:19.368Z,12.80
2023-01-06T13:46:52.607Z,12.20
2023-01-06T13:49:23.118Z,15.30
2023-01-06T13:51:54.004Z,14.10
2023-01-06T13:55:05.420Z,13.80
2023-01-06T13:57:40.244Z,13.10
2023-01-06T14:00:29.061Z,14.40
2023-01-06T14:03:25.525Z,13.10
2023-01-06T14:06:00.639Z,13.10
2023-01-06T14:08:38.848Z,13.80
2023-01-06T14:11:26.623Z,14.10
2023-01-06T14:13:59.773Z,13.50
2023-01-06T14:16:54.787Z,13.80
2023-01-06T14:19:34.311Z,11.60
2023-01-06T14:22:16.757Z,12.90
2023-01-06T14:24:52.596Z,11.80
2023-01-06T14:27:54.508Z,13.50
2023-01-06T14:30:30.460Z,12.70
2023-01-06T14:33:21.255Z,12.80
2023-01-06T14:35:54.601Z,11.80
2023-01-06T14:38:31.893Z,12.50
2023-01-06T14:41:05.842Z,12.40
2023-01-06T14:43:45.991Z,13.60
2023-01-06T14:46:19.895Z,15.30
2023-01-06T14:48:54.864Z,13.90
2023-01-06T14:51:25.901Z,11.50
2023-01-06T14:54:05.894Z,12.60
2023-01-06T14:56:36.846Z,13.00
2023-01-06T14:59:11.812Z,12.80
2023-01-06T15:01:44.394Z,12.50
2023-01-06T15:04:27.489Z,14.40
2023-01-06T15:07:16.462Z,13.80
2023-01-06T15:09:48.375Z,12.70
2023-01-06T15:12:26.528Z,12.80
2023-01-06T15:14:57.264Z,12.60
2023-01-06T15:17:28.948Z,13.50
2023-01-06T15:19:59.497Z,13.20
2023-01-06T15:22:29.741Z,13.20
2023-01-06T15:25:00.102Z,15.60
2023-01-06T15:27:30.884Z,15.20
2023-01-06T15:30:01.037Z,15.00
2023-01-06T15:32:32.373Z,14.70
2023-01-06T15:35:02.948Z,14.50
2023-01-06T15:37:34.690Z,15.00
2023-01-06T15:40:06.885Z,17.40
2023-01-06T15:42:40.592Z,15.20
2023-01-06T15:45:25.104Z,15.50
2023-01-06T15:47:58.111Z,15.60
2023-01-06T15:50:31.531Z,19.10
2023-01-06T15:53:06.939Z,16.40
2023-01-06T15:55:40.067Z,18.00
2023-01-06T15:58:18.360Z,17.10
2023-01-06T16:00:51.239Z,17.80
2023-01-06T16:03:23.692Z,20.00
2023-01-06T16:06:11.265Z,20.60
2023-01-06T16:11:47.408Z,21.00
2023-01-06T16:14:32.237Z,22.60
2023-01-06T16:17:09.021Z,17.70
2023-01-06T16:19:46.994Z,20.60
2023-01-06T16:22:38.354Z,20.20
2023-01-06T16:25:24.944Z,21.20
2023-01-06T16:27:57.675Z,18.70
2023-01-06T16:30:29.371Z,19.40
2023-01-06T16:33:00.897Z,19.60
2023-01-06T16:35:32.626Z,18.00
2023-01-06T16:38:03.303Z,20.70
2023-01-06T16:40:33.512Z,18.20
2023-01-06T16:43:04.890Z,16.60
2023-01-06T16:45:38.777Z,17.60
2023-01-06T16:48:13.911Z,16.20
2023-01-06T16:50:45.268Z,18.70
2023-01-06T16:53:19.490Z,17.00
2023-01-06T16:55:53.818Z,17.90
2023-01-06T16:58:27.488Z,16.50
2023-01-06T17:01:04.833Z,16.50
2023-01-06T17:03:38.267Z,18.10
2023-01-06T17:06:16.616Z,17.40
2023-01-06T17:08:47.757Z,20.30
2023-01-06T17:11:19.793Z,18.60
2023-01-06T17:13:54.421Z,17.80
2023-01-06T17:16:29.367Z,18.80
2023-01-06T17:19:02.279Z,19.40
2023-01-06T17:21:36.160Z,17.70
2023-01-06T17:24:14.835Z,19.10
2023-01-06T17:29:21.103Z,20.70
2023-01-06T17:31:55.581Z,18.70
2023-01-06T17:34:31.346Z,18.40
2023-01-06T17:37:11.380Z,20.40
2023-01-06T17:39:43.835Z,24.10
2023-01-06T17:42:30.223Z,25.10
2023-01-06T17:45:01.542Z,25.60
2023-01-06T17:47:44.042Z,23.20
2023-01-06T17:50:29.059Z,21.90
2023-01-06T17:53:35.071Z,21.20
2023-01-06T17:56:08.089Z,26.30
2023-01-06T17:58:39.850Z,24.80
2023-01-06T18:01:16.768Z,24.10
2023-01-06T18:03:48.226Z,27.80
2023-01-06T18:06:27.195Z,23.40
2023-01-06T18:09:14.425Z,25.30
2023-01-06T18:11:48.514Z,25.50
2023-01-06T18:14:24.613Z,23.50
2023-01-06T18:16:57.054Z,25.20
2023-01-06T18:19:36.971Z,25.50
2023-01-06T18:22:16.737Z,24.50
2023-01-06T18:24:50.151Z,27.10
2023-01-06T18:27:26.868Z,25.90
2023-01-06T18:30:12.991Z,29.00
2023-01-06T18:32:45.383Z,25.40
2023-01-06T18:35:20.174Z,27.10
2023-01-06T18:37:52.072Z,29.10
2023-01-06T18:40:25.069Z,24.40
2023-01-06T18:42:56.541Z,23.80
2023-01-06T18:45:31.995Z,23.80
2023-01-06T18:48:16.695Z,25.00
2023-01-06T18:50:50.043Z,24.90
2023-01-06T18:53:27.409Z,25.50
2023-01-06T18:56:00.962Z,26.30
2023-01-06T18:58:40.976Z,26.30
2023-01-06T19:01:19.141Z,25.90
2023-01-06T19:04:15.535Z,24.40
2023-01-06T19:06:51.357Z,25.70
2023-01-06T19:09:26.717Z,27.00
2023-01-06T19:12:18.936Z,29.00
2023-01-06T19:14:52.276Z,27.80
2023-01-06T19:17:28.138Z,27.30
2023-01-06T19:20:02.580Z,24.40
2023-01-06T19:22:34.639Z,24.00
2023-01-06T19:25:14.735Z,26.30
2023-01-06T19:27:52.014Z,24.90
2023-01-06T19:30:44.370Z,27.60
2023-01-06T19:33:36.556Z,23.60
2023-01-06T19:36:39.530Z,24.90
2023-01-06T19:39:33.561Z,26.70
2023-01-06T19:42:24.959Z,25.10
2023-01-06T19:45:00.702Z,25.20
2023-01-06T19:47:38.927Z,24.80
2023-01-06T19:50:19.673Z,25.70
2023-01-06T19:52:55.779Z,26.70
2023-01-06T19:55:29.714Z,25.50
2023-01-06T19:58:02.443Z,28.30
2023-01-06T20:00:41.635Z,27.30
2023-01-06T20:03:27.565Z,25.10
2023-01-06T20:05:59.049Z,23.30
2023-01-06T20:08:29.938Z,24.80
2023-01-06T20:11:00.429Z,24.40
2023-01-06T20:13:30.545Z,24.70
2023-01-06T20:16:01.888Z,21.10
2023-01-06T20:18:32.445Z,22.60
2023-01-06T20:21:03.126Z,23.00
2023-01-06T20:23:35.084Z,22.70
2023-01-06T20:26:06.842Z,21.50
2023-01-06T20:28:38.000Z,22.40
2023-01-06T20:31:09.632Z,22.90
2023-01-06T20:33:40.792Z,23.50
2023-01-06T20:36:16.738Z,25.00
2023-01-06T20:38:48.872Z,23.00
2023-01-06T20:41:22.538Z,22.20
2023-01-06T20:43:54.793Z,23.40
2023-01-06T20:46:25.833Z,24.20
2023-01-06T20:48:56.351Z,20.30
2023-01-06T20:51:27.279Z,22.00
2023-01-06T20:53:58.529Z,21.60
2023-01-06T20:56:29.578Z,22.20
2023-01-06T20:59:00.141Z,28.50
2023-01-06T21:01:30.228Z,21.50
2023-01-06T21:04:01.864Z,23.70
2023-01-06T21:06:32.050Z,21.90
2023-01-06T21:09:03.341Z,21.90
2023-01-06T21:11:35.174Z,21.20
2023-01-06T21:14:07.689Z,21.90
2023-01-06T21:16:38.159Z,21.70
2023-01-06T21:19:09.077Z,22.10
2023-01-06T21:21:39.485Z,20.50
2023-01-06T21:24:10.371Z,22.50
2023-01-06T21:26:40.817Z,20.70
2023-01-06T21:29:11.779Z,22.10
2023-01-06T21:31:43.435Z,23.00
2023-01-06T21:34:13.985Z,20.10
2023-01-06T21:36:44.324Z,21.30
2023-01-06T21:39:14.836Z,22.60
2023-01-06T21:42:04.010Z,22.90
2023-01-06T21:44:34.662Z,22.00
2023-01-06T21:47:05.357Z,22.20
2023-01-06T21:49:35.968Z,24.50
2023-01-06T21:52:06.986Z,20.70
2023-01-06T21:54:37.621Z,23.40
2023-01-06T21:57:08.443Z,19.60
2023-01-06T21:59:39.410Z,20.20
2023-01-06T22:02:09.936Z,20.70
2023-01-06T22:04:40.206Z,21.20
2023-01-06T22:07:10.629Z,21.40
2023-01-06T22:09:42.742Z,23.60
2023-01-06T22:12:16.312Z,24.50
2023-01-06T22:14:49.131Z,24.20
2023-01-06T22:17:20.800Z,21.70
2023-01-06T22:19:54.165Z,22.30
2023-01-06T22:22:25.183Z,24.60
2023-01-06T22:24:56.963Z,20.90
2023-01-06T22:27:27.412Z,26.00
2023-01-06T22:29:57.592Z,21.30
2023-01-06T22:32:28.798Z,20.40
2023-01-06T22:34:59.093Z,23.50
2023-01-06T22:37:29.369Z,20.30
2023-01-06T22:40:00.006Z,23.60
2023-01-06T22:42:30.505Z,22.30
2023-01-06T22:45:00.439Z,23.40
2023-01-06T22:47:30.522Z,22.50
2023-01-06T22:50:01.098Z,24.00
2023-01-06T22:52:31.553Z,23.10
2023-01-06T22:55:01.936Z,23.30
2023-01-06T22:57:32.416Z,25.00
2023-01-06T23:00:07.146Z,28.70
2023-01-06T23:02:37.961Z,25.00
2023-01-06T23:05:10.226Z,28.10
2023-01-06T23:07:42.059Z,27.10
2023-01-06T23:10:14.416Z,25.50
2023-01-06T23:12:44.732Z,26.40
2023-01-06T23:15:15.281Z,26.70
2023-01-06T23:17:45.937Z,25.10
2023-01-06T23:20:16.564Z,26.20
2023-01-06T23:22:46.903Z,25.40
2023-01-06T23:25:17.518Z,26.40
2023-01-06T23:27:47.893Z,26.30
2023-01-06T23:30:18.682Z,25.10
2023-01-06T23:32:48.968Z,25.70
2023-01-06T23:35:19.716Z,25.30
2023-01-06T23:37:50.435Z,24.70
2023-01-06T23:40:21.208Z,27.60
2023-01-06T23:42:51.758Z,26.60
2023-01-06T23:45:22.237Z,24.70
2023-01-06T23:47:52.664Z,24.70
2023-01-06T23:50:23.353Z,26.70
2023-01-06T23:52:54.815Z,27.90
2023-01-06T23:55:25.465Z,24.70
2023-01-06T23:57:55.794Z,25.30
